CYOA

Ekati Airport

Ekati, Northwest Territories, Canada
METAR CYOA 201500Z 16010KT 15SM SCT120 M38/M42 A3011 RMK AC3
Observed Flight Rules
Feb-20 @ 15:00 UTC (2 hours ago) Visual Flight Rules
Wind Visibility Clouds
160° at 10 knots 15 miles
  • Scattered at 12,000' AGL
Temperatures Readings
Current -38°C / -36°F
Dewpoint -42°C / -44°F
Humidity 66%
Altimeter 30.11" Hg
Pressure 1020 hPa
Elevation 469
METAR CYOA 201500Z 16010KT 15SM SCT120 M38/M42 A3011 RMK AC3
Observed Flight Rules
Feb-20 @ 15:00 UTC
(2 hours ago)
VFR
Wind Visibility
160° at 10 knots 15 miles
Clouds
  • Scattered at 12,000' AGL
Temperature Dewpoint
-38°C / -36°F -42°C / -44°F
Humidity Altimeter Pressure
66% 30.11" Hg 1020 hPa